Terminal Aerodrome Forecast
Issued by NWS

Home | Current Version | Previous Version | Text Only | Print | Product List | Glossary On
Versions: 1 2 3 4 5 6 7 8 9 10 11 12 13 14 15 16 17 18 19 20 21 22 23 24 25
000
FTUS44 KLZK 250000 AAA
TAFLIT
TAF AMD
KLIT 250029Z 2500/2524 23008G18KT P6SM VCSH BKN040 OVC100
     FM250200 29008G18KT P6SM BKN040 OVC100
     FM250600 29009KT P6SM SCT100 SCT250
      TEMPO 2509/2513 5SM BR SCT010
     FM251300 30005KT P6SM SCT250
     FM251800 07005KT P6SM SCT250=

USA.gov is the U.S. government's official web portal to all federal, state and local government web resources and services.